createdAt,value
2023-03-11T00:02:27.721Z,83.45
2023-03-11T00:04:56.553Z,81.95
2023-03-11T00:07:25.510Z,86.70
2023-03-11T00:09:54.218Z,93.22
2023-03-11T00:12:28.516Z,84.97
2023-03-11T00:15:00.798Z,80.80
2023-03-11T00:17:32.472Z,77.88
2023-03-11T00:20:00.949Z,80.90
2023-03-11T00:22:29.593Z,74.22
2023-03-11T00:24:59.524Z,87.10
2023-03-11T00:27:29.327Z,90.82
2023-03-11T00:29:59.717Z,104.10
2023-03-11T00:32:28.164Z,102.68
2023-03-11T00:34:56.749Z,89.95
2023-03-11T00:37:25.665Z,83.35
2023-03-11T00:39:55.388Z,84.57
2023-03-11T00:42:25.362Z,80.65
2023-03-11T00:44:55.775Z,84.43
2023-03-11T00:47:27.791Z,87.70
2023-03-11T00:49:56.456Z,78.50
2023-03-11T00:52:26.239Z,76.72
2023-03-11T00:54:54.908Z,77.10
2023-03-11T00:57:23.595Z,69.00
2023-03-11T00:59:53.032Z,66.22
2023-03-11T01:02:21.508Z,64.47
2023-03-11T01:04:56.356Z,62.67
2023-03-11T01:07:30.144Z,63.85
2023-03-11T01:09:58.846Z,58.88
2023-03-11T01:12:30.609Z,66.28
2023-03-11T01:14:59.631Z,67.65
2023-03-11T01:17:28.488Z,58.08
2023-03-11T01:19:59.364Z,53.70
2023-03-11T01:22:28.178Z,49.90
2023-03-11T01:24:58.416Z,54.08
2023-03-11T01:27:28.821Z,46.75
2023-03-11T01:29:57.592Z,45.25
2023-03-11T01:32:27.336Z,43.92
2023-03-11T01:34:56.092Z,42.35
2023-03-11T01:37:26.139Z,48.85
2023-03-11T01:39:54.761Z,48.05
2023-03-11T01:42:23.294Z,48.03
2023-03-11T01:44:51.754Z,47.42
2023-03-11T01:47:40.653Z,44.60
2023-03-11T01:50:14.212Z,42.35
2023-03-11T01:52:46.244Z,41.92
2023-03-11T01:55:16.324Z,42.38
2023-03-11T01:57:48.029Z,42.83
2023-03-11T02:00:18.160Z,39.50
2023-03-11T02:02:52.652Z,42.22
2023-03-11T02:05:24.003Z,40.83
2023-03-11T02:07:57.554Z,38.17
2023-03-11T02:10:26.562Z,40.85
2023-03-11T02:12:55.416Z,38.65
2023-03-11T02:15:25.495Z,37.78
2023-03-11T02:17:56.736Z,38.45
2023-03-11T02:20:40.761Z,38.00
2023-03-11T02:23:13.831Z,38.78
2023-03-11T02:25:50.328Z,38.92
2023-03-11T02:28:22.637Z,33.53
2023-03-11T02:30:53.761Z,40.45
2023-03-11T02:33:29.682Z,26.98
2023-03-11T02:35:59.388Z,32.38
2023-03-11T02:38:28.232Z,35.28
2023-03-11T02:41:00.153Z,32.20
2023-03-11T02:43:37.174Z,34.75
2023-03-11T02:46:07.997Z,36.47
2023-03-11T02:48:38.139Z,33.33
2023-03-11T02:51:07.196Z,33.28
2023-03-11T02:53:42.989Z,31.75
2023-03-11T02:56:12.622Z,27.67
2023-03-11T02:58:42.873Z,26.73
2023-03-11T03:01:12.606Z,25.02
2023-03-11T03:03:41.579Z,34.10
2023-03-11T03:06:10.717Z,28.52
2023-03-11T03:08:39.543Z,33.78
2023-03-11T03:11:08.288Z,28.65
2023-03-11T03:13:36.906Z,31.95
2023-03-11T03:16:07.559Z,30.15
2023-03-11T03:18:36.629Z,30.35
2023-03-11T03:21:05.897Z,35.38
2023-03-11T03:23:35.620Z,34.88
2023-03-11T03:26:04.058Z,31.90
2023-03-11T03:28:35.108Z,36.40
2023-03-11T03:31:09.179Z,31.95
2023-03-11T03:33:38.124Z,34.20
2023-03-11T03:36:09.386Z,32.05
2023-03-11T03:38:38.163Z,30.48
2023-03-11T03:41:07.600Z,29.85
2023-03-11T03:43:36.304Z,28.90
2023-03-11T03:46:08.532Z,32.47
2023-03-11T03:48:37.763Z,29.83
2023-03-11T03:51:08.037Z,33.05
2023-03-11T03:53:37.496Z,26.67
2023-03-11T03:56:06.715Z,21.85
2023-03-11T03:58:37.912Z,18.48
2023-03-11T04:01:08.762Z,20.90
2023-03-11T04:03:39.467Z,17.13
2023-03-11T04:06:11.150Z,14.23
2023-03-11T04:08:41.060Z,14.45
2023-03-11T04:11:09.675Z,20.30
2023-03-11T04:13:38.448Z,13.32
2023-03-11T04:16:09.754Z,11.00
2023-03-11T04:18:38.485Z,9.88
2023-03-11T04:21:07.905Z,11.57
2023-03-11T04:23:36.623Z,9.38
2023-03-11T04:26:05.846Z,7.03
2023-03-11T04:28:34.842Z,7.80
2023-03-11T04:31:04.571Z,6.75
2023-03-11T04:33:35.194Z,10.07
2023-03-11T04:36:07.692Z,8.70
2023-03-11T04:38:36.742Z,7.93
2023-03-11T04:41:08.625Z,8.30
2023-03-11T04:43:38.239Z,6.28
2023-03-11T04:46:07.044Z,6.60
2023-03-11T04:48:37.058Z,8.23
2023-03-11T04:51:07.790Z,7.15
2023-03-11T04:53:36.637Z,4.82
2023-03-11T04:56:05.513Z,5.88
2023-03-11T04:58:34.137Z,7.15
2023-03-11T05:01:03.505Z,4.68
2023-03-11T05:03:32.344Z,7.03
2023-03-11T05:06:02.679Z,6.90
2023-03-11T05:08:31.345Z,4.95
2023-03-11T05:10:59.911Z,5.95
2023-03-11T05:13:30.431Z,3.67
2023-03-11T05:15:59.196Z,4.72
2023-03-11T05:18:27.723Z,6.43
2023-03-11T05:20:56.532Z,3.40
2023-03-11T05:23:26.741Z,4.38
2023-03-11T05:25:55.148Z,6.30
2023-03-11T05:28:23.869Z,3.08
2023-03-11T05:30:52.678Z,5.68
2023-03-11T05:33:21.280Z,4.90
2023-03-11T05:35:52.142Z,4.05
2023-03-11T05:38:21.094Z,4.63
2023-03-11T05:40:51.070Z,6.82
2023-03-11T05:43:19.678Z,3.88
2023-03-11T05:45:48.683Z,5.93
2023-03-11T05:48:17.037Z,5.20
2023-03-11T05:50:45.432Z,6.30
2023-03-11T05:53:13.875Z,7.68
2023-03-11T05:55:42.484Z,6.05
2023-03-11T05:58:13.552Z,4.25
2023-03-11T06:00:42.152Z,3.92
2023-03-11T06:03:12.417Z,5.25
2023-03-11T06:05:46.537Z,4.55
2023-03-11T06:08:15.352Z,9.35
2023-03-11T06:10:45.515Z,5.18
2023-03-11T06:13:16.877Z,6.20
2023-03-11T06:15:46.222Z,5.85
2023-03-11T06:18:14.812Z,6.13
2023-03-11T06:20:43.351Z,5.53
2023-03-11T06:23:11.998Z,6.80
2023-03-11T06:25:41.184Z,7.20
2023-03-11T06:28:09.751Z,8.57
2023-03-11T06:30:39.847Z,7.97
2023-03-11T06:33:08.393Z,6.15
2023-03-11T06:35:37.734Z,7.60
2023-03-11T06:38:06.402Z,8.80
2023-03-11T06:40:34.970Z,6.55
2023-03-11T06:43:03.734Z,6.60
2023-03-11T06:45:32.484Z,9.73
2023-03-11T06:48:02.659Z,5.65
2023-03-11T06:50:31.187Z,6.78
2023-03-11T06:53:02.113Z,7.10
2023-03-11T06:55:32.249Z,7.55
2023-03-11T06:58:00.995Z,9.43
2023-03-11T07:00:31.493Z,7.28
2023-03-11T07:03:02.832Z,5.63
2023-03-11T07:05:33.250Z,6.97
2023-03-11T07:08:02.957Z,6.93
2023-03-11T07:10:31.429Z,9.93
2023-03-11T07:12:59.945Z,9.07
2023-03-11T07:15:28.622Z,8.82
2023-03-11T07:17:57.181Z,7.40
2023-03-11T07:20:27.420Z,11.73
2023-03-11T07:22:57.015Z,7.20
2023-03-11T07:25:25.827Z,5.40
2023-03-11T07:27:54.366Z,8.18
2023-03-11T07:30:24.991Z,6.20
2023-03-11T07:32:54.638Z,10.10
2023-03-11T07:35:23.219Z,8.55
2023-03-11T07:37:54.137Z,10.57
2023-03-11T07:40:23.725Z,7.05
2023-03-11T07:42:52.513Z,8.45
2023-03-11T07:45:22.150Z,7.97
2023-03-11T07:47:50.937Z,7.00
2023-03-11T07:50:29.503Z,12.25
2023-03-11T07:52:59.957Z,9.95
2023-03-11T07:55:31.798Z,8.70
2023-03-11T07:58:00.412Z,9.65
2023-03-11T08:00:29.197Z,11.80
2023-03-11T08:03:00.395Z,12.27
2023-03-11T08:05:35.684Z,12.70
2023-03-11T08:08:06.096Z,9.10
2023-03-11T08:10:37.618Z,10.90
2023-03-11T08:13:06.796Z,12.77
2023-03-11T08:15:35.696Z,12.32
2023-03-11T08:18:04.989Z,10.95
2023-03-11T08:20:33.650Z,8.77
2023-03-11T08:23:04.098Z,11.38
2023-03-11T08:25:34.644Z,14.05
2023-03-11T08:28:07.799Z,11.20
2023-03-11T08:30:37.977Z,11.27
2023-03-11T08:33:07.902Z,9.77
2023-03-11T08:35:36.469Z,11.60
2023-03-11T08:38:08.228Z,11.20
2023-03-11T08:40:42.398Z,8.75
2023-03-11T08:43:17.946Z,8.75
2023-03-11T08:45:46.516Z,10.68
2023-03-11T08:48:15.483Z,8.25
2023-03-11T08:50:54.027Z,8.10
2023-03-11T08:53:23.713Z,15.35
2023-03-11T08:55:59.665Z,8.20
2023-03-11T08:58:29.564Z,4.60
2023-03-11T09:01:00.576Z,8.00
2023-03-11T09:03:29.875Z,7.35
2023-03-11T09:06:00.343Z,7.55
2023-03-11T09:08:36.158Z,7.45
2023-03-11T09:11:08.160Z,9.10
2023-03-11T09:13:37.211Z,11.10
2023-03-11T09:16:07.663Z,9.60
2023-03-11T09:18:36.491Z,9.20
2023-03-11T09:21:05.596Z,7.07
2023-03-11T09:23:35.373Z,7.45
2023-03-11T09:26:04.282Z,10.43
2023-03-11T09:28:35.459Z,8.75
2023-03-11T09:31:04.459Z,8.95
2023-03-11T09:33:33.614Z,9.27
2023-03-11T09:36:02.403Z,7.53
2023-03-11T09:38:31.172Z,9.23
2023-03-11T09:41:05.012Z,8.65
2023-03-11T09:43:53.511Z,11.57
2023-03-11T09:46:40.559Z,8.23
2023-03-11T09:49:19.730Z,10.23
2023-03-11T09:51:54.512Z,13.50
2023-03-11T09:54:23.667Z,15.13
2023-03-11T09:56:53.683Z,10.07
2023-03-11T09:59:32.205Z,10.93
2023-03-11T10:02:04.482Z,12.80
2023-03-11T10:04:43.829Z,15.00
2023-03-11T10:07:22.354Z,11.75
2023-03-11T10:09:54.781Z,13.18
2023-03-11T10:12:39.933Z,10.82
2023-03-11T10:15:22.615Z,9.98
2023-03-11T10:18:16.147Z,11.20
2023-03-11T10:20:58.112Z,12.65
2023-03-11T10:23:33.773Z,10.80
2023-03-11T10:26:13.172Z,9.73
2023-03-11T10:28:47.483Z,12.10
2023-03-11T10:31:24.773Z,13.27
2023-03-11T10:34:01.861Z,11.35
2023-03-11T10:36:40.977Z,13.82
2023-03-11T10:39:12.654Z,10.82
2023-03-11T10:41:45.979Z,10.20
2023-03-11T10:44:21.452Z,11.77
2023-03-11T10:46:52.548Z,10.82
2023-03-11T10:49:23.215Z,10.75
2023-03-11T10:51:54.028Z,14.55
2023-03-11T10:54:32.388Z,11.77
2023-03-11T10:57:04.206Z,9.27
2023-03-11T10:59:35.270Z,11.88
2023-03-11T11:02:23.762Z,12.32
2023-03-11T11:05:08.895Z,11.23
2023-03-11T11:07:42.344Z,7.65
2023-03-11T11:10:22.323Z,8.70
2023-03-11T11:12:57.225Z,11.93
2023-03-11T11:15:30.220Z,10.48
2023-03-11T11:18:03.227Z,8.55
2023-03-11T11:20:33.801Z,11.15
2023-03-11T11:23:05.330Z,9.02
2023-03-11T11:25:36.485Z,13.95
2023-03-11T11:28:16.654Z,8.57
2023-03-11T11:30:56.559Z,12.77
2023-03-11T11:33:30.189Z,7.03
2023-03-11T11:36:02.854Z,8.90
2023-03-11T11:38:32.492Z,9.70
2023-03-11T11:41:05.239Z,10.48
2023-03-11T11:43:46.055Z,8.48
2023-03-11T11:46:22.235Z,9.10
2023-03-11T11:49:00.032Z,5.93
2023-03-11T11:51:38.297Z,6.18
2023-03-11T11:54:17.832Z,6.93
2023-03-11T11:56:47.065Z,5.68
2023-03-11T11:59:22.215Z,7.00
2023-03-11T12:02:06.605Z,5.35
2023-03-11T12:04:56.423Z,5.30
2023-03-11T12:07:39.008Z,6.80
2023-03-11T12:10:24.253Z,4.57
2023-03-11T12:13:17.040Z,2.40
2023-03-11T12:15:52.132Z,4.65
2023-03-11T12:18:25.444Z,2.95
2023-03-11T12:21:02.297Z,3.72
2023-03-11T12:23:47.654Z,4.13
2023-03-11T12:26:23.825Z,2.05
2023-03-11T12:28:59.705Z,1.73
2023-03-11T12:31:39.762Z,3.05
2023-03-11T12:34:13.431Z,2.22
2023-03-11T12:36:48.505Z,5.43
2023-03-11T12:39:31.590Z,5.07
2023-03-11T12:42:22.505Z,7.15
2023-03-11T12:44:55.006Z,4.90
2023-03-11T12:47:25.558Z,6.25
2023-03-11T12:49:56.408Z,4.40
2023-03-11T12:52:54.307Z,3.03
2023-03-11T12:55:37.094Z,2.85
2023-03-11T12:58:42.136Z,3.47
2023-03-11T13:01:48.908Z,4.32
2023-03-11T13:04:32.098Z,3.28
2023-03-11T13:07:36.385Z,4.75
2023-03-11T13:10:18.696Z,5.25
2023-03-11T13:12:48.928Z,5.40
2023-03-11T13:15:42.993Z,8.00
2023-03-11T13:18:20.502Z,5.65
2023-03-11T13:20:56.324Z,5.13
2023-03-11T13:23:37.165Z,7.47
2023-03-11T13:26:39.169Z,9.75
2023-03-11T13:29:39.751Z,4.50
2023-03-11T13:32:33.807Z,7.28
2023-03-11T13:35:23.100Z,10.05
2023-03-11T13:38:19.457Z,12.27
2023-03-11T13:40:49.213Z,6.50
2023-03-11T13:43:21.756Z,9.63
2023-03-11T13:45:55.473Z,5.53
2023-03-11T13:48:29.914Z,7.15
2023-03-11T13:51:05.870Z,6.15
2023-03-11T13:53:42.577Z,8.13
2023-03-11T13:56:19.443Z,6.25
2023-03-11T13:58:49.726Z,6.40
2023-03-11T14:01:20.409Z,7.80
2023-03-11T14:03:50.322Z,6.45
2023-03-11T14:06:21.714Z,5.47
2023-03-11T14:08:57.274Z,6.22
2023-03-11T14:11:29.603Z,4.15
2023-03-11T14:14:00.162Z,4.28
2023-03-11T14:16:36.145Z,5.47
2023-03-11T14:19:09.324Z,4.20
2023-03-11T14:21:38.600Z,3.47
2023-03-11T14:24:19.826Z,3.88
2023-03-11T14:26:50.008Z,3.92
2023-03-11T14:29:23.423Z,2.90
2023-03-11T14:32:00.864Z,2.25
2023-03-11T14:34:31.826Z,3.53
2023-03-11T14:37:04.388Z,2.67
2023-03-11T14:39:36.586Z,3.33
2023-03-11T14:42:18.985Z,3.65
2023-03-11T14:44:56.350Z,4.32
2023-03-11T14:47:34.422Z,4.63
2023-03-11T14:50:06.803Z,4.15
2023-03-11T14:52:40.431Z,5.18
2023-03-11T14:55:19.572Z,4.70
2023-03-11T14:57:53.265Z,2.67
2023-03-11T15:00:27.003Z,4.95
2023-03-11T15:03:03.874Z,4.75
2023-03-11T15:05:39.783Z,4.45
2023-03-11T15:08:08.753Z,6.22
2023-03-11T15:10:37.405Z,4.47
2023-03-11T15:13:09.107Z,5.00
2023-03-11T15:15:59.555Z,6.32
2023-03-11T15:18:36.583Z,5.80
2023-03-11T15:21:18.454Z,3.65
2023-03-11T15:24:07.280Z,5.60
2023-03-11T15:26:38.729Z,4.40
2023-03-11T15:29:19.647Z,4.50
2023-03-11T15:31:53.691Z,3.30
2023-03-11T15:34:36.203Z,4.10
2023-03-11T15:37:23.387Z,5.38
2023-03-11T15:39:53.577Z,4.90
2023-03-11T15:42:27.876Z,5.70
2023-03-11T15:45:13.535Z,5.53
2023-03-11T15:47:44.488Z,6.15
2023-03-11T15:50:40.185Z,5.00
2023-03-11T15:53:15.350Z,4.97
2023-03-11T15:55:44.051Z,3.55
2023-03-11T15:58:14.648Z,5.40
2023-03-11T16:00:48.824Z,3.75
2023-03-11T16:03:19.830Z,5.53
2023-03-11T16:05:49.132Z,5.22
2023-03-11T16:08:20.766Z,4.65
2023-03-11T16:10:49.573Z,5.60
2023-03-11T16:13:18.668Z,4.97
2023-03-11T16:15:48.903Z,6.15
2023-03-11T16:18:23.725Z,6.43
2023-03-11T16:20:54.512Z,4.22
2023-03-11T16:23:26.704Z,6.03
2023-03-11T16:25:58.749Z,5.53
2023-03-11T16:28:28.113Z,7.28
2023-03-11T16:30:57.077Z,6.38
2023-03-11T16:33:28.288Z,6.15
2023-03-11T16:35:59.207Z,5.15
2023-03-11T16:38:28.176Z,7.00
2023-03-11T16:40:59.772Z,7.78
2023-03-11T16:43:30.294Z,12.70
2023-03-11T16:45:58.993Z,9.80
2023-03-11T16:48:29.269Z,9.05
2023-03-11T16:50:57.702Z,9.55
2023-03-11T16:53:26.805Z,9.02
2023-03-11T16:55:55.415Z,11.15
2023-03-11T16:58:24.581Z,11.52
2023-03-11T17:00:54.606Z,10.55
2023-03-11T17:03:27.538Z,9.60
2023-03-11T17:06:07.889Z,11.70
2023-03-11T17:08:36.565Z,9.38
2023-03-11T17:11:05.372Z,12.20
2023-03-11T17:13:35.226Z,13.77
2023-03-11T17:16:05.259Z,14.20
2023-03-11T17:18:46.230Z,15.23
2023-03-11T17:21:19.418Z,16.58
2023-03-11T17:23:48.336Z,19.85
2023-03-11T17:26:18.750Z,16.95
2023-03-11T17:28:49.051Z,20.73
2023-03-11T17:31:22.301Z,24.77
2023-03-11T17:33:51.040Z,23.75
2023-03-11T17:36:21.372Z,26.45
2023-03-11T17:38:54.187Z,29.42
2023-03-11T17:41:23.400Z,29.55
2023-03-11T17:43:52.122Z,29.27
2023-03-11T17:46:22.820Z,30.92
2023-03-11T17:48:53.136Z,34.10
2023-03-11T17:51:26.646Z,36.00
2023-03-11T17:53:57.609Z,41.20
2023-03-11T17:56:26.373Z,38.15
2023-03-11T17:58:55.827Z,39.67
2023-03-11T18:01:26.763Z,41.28
2023-03-11T18:03:56.668Z,40.65
2023-03-11T18:06:28.617Z,43.13
2023-03-11T18:08:57.655Z,50.13
2023-03-11T18:11:29.748Z,50.25
2023-03-11T18:14:00.212Z,46.47
2023-03-11T18:16:32.254Z,43.35
2023-03-11T18:19:01.574Z,44.33
2023-03-11T18:21:33.272Z,51.00
2023-03-11T18:24:03.387Z,42.78
2023-03-11T18:26:32.447Z,45.72
2023-03-11T18:29:04.194Z,46.83
2023-03-11T18:31:33.623Z,41.75
2023-03-11T18:34:05.527Z,50.28
2023-03-11T18:36:37.788Z,90.43
2023-03-11T18:39:12.274Z,92.88
2023-03-11T18:41:41.298Z,48.53
2023-03-11T18:44:12.336Z,30.85
2023-03-11T18:46:42.546Z,33.28
2023-03-11T18:49:13.898Z,20.50
2023-03-11T18:51:44.443Z,22.42
2023-03-11T18:54:14.343Z,24.80
2023-03-11T18:56:45.146Z,38.55
2023-03-11T18:59:16.067Z,21.25
2023-03-11T19:01:44.605Z,24.38
2023-03-11T19:04:13.327Z,22.77
2023-03-11T19:06:43.351Z,40.30
2023-03-11T19:09:13.676Z,36.28
2023-03-11T19:11:44.122Z,22.90
2023-03-11T19:14:12.821Z,20.98
2023-03-11T19:16:42.503Z,21.52
2023-03-11T19:19:12.057Z,22.65
2023-03-11T19:21:41.601Z,23.63
2023-03-11T19:24:13.779Z,23.83
2023-03-11T19:26:45.837Z,24.95
2023-03-11T19:29:15.854Z,63.58
2023-03-11T19:31:45.674Z,28.23
2023-03-11T19:34:14.813Z,26.17
2023-03-11T19:36:43.297Z,34.35
2023-03-11T19:39:13.505Z,31.25
2023-03-11T19:41:42.233Z,32.58
2023-03-11T19:44:12.347Z,48.15
2023-03-11T19:46:41.210Z,32.63
2023-03-11T19:49:10.152Z,35.47
2023-03-11T19:51:49.644Z,38.05
2023-03-11T19:54:21.135Z,34.72
2023-03-11T19:56:50.911Z,42.40
2023-03-11T19:59:19.636Z,47.53
2023-03-11T20:01:53.410Z,74.30
2023-03-11T20:04:24.240Z,66.38
2023-03-11T20:06:54.333Z,100.72
2023-03-11T20:09:24.431Z,94.38
2023-03-11T20:11:54.291Z,104.53
2023-03-11T20:14:24.049Z,106.63
2023-03-11T20:16:55.137Z,107.60
2023-03-11T20:19:23.879Z,111.75
2023-03-11T20:21:54.553Z,135.38
2023-03-11T20:24:27.334Z,112.47
2023-03-11T20:26:56.100Z,111.57
2023-03-11T20:29:25.398Z,117.43
2023-03-11T20:31:54.102Z,112.60
2023-03-11T20:34:24.094Z,96.88
2023-03-11T20:36:53.801Z,109.40
2023-03-11T20:39:25.315Z,114.35
2023-03-11T20:41:55.331Z,97.70
2023-03-11T20:44:24.339Z,92.72
2023-03-11T20:46:56.249Z,96.05
2023-03-11T20:49:25.025Z,88.88
2023-03-11T20:51:55.839Z,100.95
2023-03-11T20:54:24.593Z,84.18
2023-03-11T20:56:56.979Z,81.88
2023-03-11T20:59:25.804Z,92.03
2023-03-11T21:02:01.670Z,72.85
2023-03-11T21:04:31.219Z,89.60
2023-03-11T21:07:03.359Z,60.90
2023-03-11T21:09:32.663Z,73.28
2023-03-11T21:12:04.277Z,69.90
2023-03-11T21:14:34.100Z,75.35
2023-03-11T21:17:04.878Z,75.63
2023-03-11T21:19:33.515Z,79.45
2023-03-11T21:22:02.307Z,70.43
2023-03-11T21:24:31.132Z,61.08
2023-03-11T21:27:04.283Z,90.55
2023-03-11T21:29:33.070Z,74.47
2023-03-11T21:32:01.510Z,74.25
2023-03-11T21:34:30.128Z,72.95
2023-03-11T21:36:58.533Z,68.65
2023-03-11T21:39:27.378Z,70.95
2023-03-11T21:41:58.081Z,61.15
2023-03-11T21:44:34.342Z,76.10
2023-03-11T21:47:03.525Z,67.63
2023-03-11T21:49:33.389Z,68.88
2023-03-11T21:52:03.599Z,52.67
2023-03-11T21:54:32.451Z,60.83
2023-03-11T21:57:01.207Z,48.55
2023-03-11T21:59:32.172Z,50.95
2023-03-11T22:02:04.802Z,53.55
2023-03-11T22:04:33.441Z,63.20
2023-03-11T22:07:02.153Z,44.80
2023-03-11T22:09:32.664Z,58.67
2023-03-11T22:12:02.432Z,49.50
2023-03-11T22:14:38.130Z,52.00
2023-03-11T22:17:08.550Z,46.50
2023-03-11T22:19:37.453Z,57.90
2023-03-11T22:22:06.043Z,48.72
2023-03-11T22:24:34.554Z,49.65
2023-03-11T22:27:03.156Z,50.10
2023-03-11T22:29:31.702Z,58.63
2023-03-11T22:32:00.210Z,45.50
2023-03-11T22:34:30.640Z,61.50
2023-03-11T22:36:59.720Z,56.63
2023-03-11T22:39:28.682Z,49.83
2023-03-11T22:41:57.522Z,54.88
2023-03-11T22:44:26.381Z,50.60
2023-03-11T22:46:55.013Z,44.38
2023-03-11T22:49:24.627Z,42.95
2023-03-11T22:51:55.322Z,46.47
2023-03-11T22:54:24.452Z,40.30
2023-03-11T22:56:55.940Z,48.08
2023-03-11T22:59:27.133Z,49.40
2023-03-11T23:01:57.803Z,57.75
2023-03-11T23:04:31.973Z,66.00
2023-03-11T23:07:01.880Z,74.70
2023-03-11T23:09:35.238Z,68.47
2023-03-11T23:12:07.178Z,69.57
2023-03-11T23:14:44.432Z,86.10
2023-03-11T23:17:13.726Z,80.22
2023-03-11T23:19:41.972Z,69.38
2023-03-11T23:22:12.516Z,68.97
2023-03-11T23:24:43.364Z,88.75
2023-03-11T23:27:11.733Z,84.03
2023-03-11T23:29:40.240Z,92.50
2023-03-11T23:32:09.000Z,102.50
2023-03-11T23:34:38.983Z,88.45
2023-03-11T23:37:11.579Z,78.00
2023-03-11T23:40:24.345Z,103.95
2023-03-11T23:43:02.076Z,95.13
2023-03-11T23:45:32.238Z,87.38
2023-03-11T23:48:00.945Z,76.20
2023-03-11T23:50:30.331Z,70.78
2023-03-11T23:52:59.201Z,90.78
2023-03-11T23:55:30.048Z,84.28
2023-03-11T23:57:58.691Z,93.85
